createdAt,value
2023-02-17T00:00:01.257Z,3.36
2023-02-17T00:03:03.080Z,3.81
2023-02-17T00:06:07.949Z,4.26
2023-02-17T00:09:09.805Z,4.61
2023-02-17T00:12:11.560Z,4.87
2023-02-17T00:15:13.392Z,5.23
2023-02-17T00:18:15.221Z,5.34
2023-02-17T00:21:20.464Z,5.58
2023-02-17T00:24:22.593Z,5.93
2023-02-17T00:27:24.380Z,6.05
2023-02-17T00:30:27.014Z,6.03
2023-02-17T00:33:28.824Z,6.01
2023-02-17T00:36:32.173Z,6.03
2023-02-17T00:39:33.952Z,6.10
2023-02-17T00:42:35.754Z,6.19
2023-02-17T00:45:37.532Z,6.16
2023-02-17T00:48:39.417Z,6.26
2023-02-17T00:51:42.696Z,6.36
2023-02-17T00:54:44.472Z,6.44
2023-02-17T00:57:46.315Z,6.44
2023-02-17T01:00:48.367Z,6.52
2023-02-17T01:03:50.230Z,6.56
2023-02-17T01:06:53.399Z,6.55
2023-02-17T01:09:55.271Z,6.51
2023-02-17T01:12:57.084Z,6.61
2023-02-17T01:15:58.961Z,6.67
2023-02-17T01:19:01.597Z,6.58
2023-02-17T01:22:04.877Z,6.64
2023-02-17T01:25:07.259Z,6.66
2023-02-17T01:28:14.242Z,6.80
2023-02-17T01:31:16.606Z,6.68
2023-02-17T01:34:18.487Z,6.75
2023-02-17T01:37:21.650Z,6.79
2023-02-17T01:40:23.631Z,6.81
2023-02-17T01:43:25.964Z,6.73
2023-02-17T01:46:27.835Z,6.96
2023-02-17T01:49:35.711Z,6.76
2023-02-17T01:52:40.223Z,6.98
2023-02-17T01:55:42.808Z,7.22
2023-02-17T01:58:50.462Z,7.30
2023-02-17T02:01:57.450Z,7.40
2023-02-17T02:05:00.411Z,7.35
2023-02-17T02:08:04.142Z,7.42
2023-02-17T02:11:06.020Z,7.25
2023-02-17T02:14:08.881Z,7.22
2023-02-17T02:17:17.862Z,7.30
2023-02-17T02:20:43.719Z,7.32
2023-02-17T02:24:02.532Z,7.55
2023-02-17T02:27:34.408Z,7.61
2023-02-17T02:30:57.751Z,7.53
2023-02-17T02:34:06.228Z,7.61
2023-02-17T02:37:13.498Z,7.58
2023-02-17T02:40:19.777Z,7.55
2023-02-17T02:43:23.687Z,7.57
2023-02-17T02:46:25.539Z,7.50
2023-02-17T02:49:30.845Z,7.78
2023-02-17T02:52:42.796Z,7.72
2023-02-17T02:55:54.031Z,7.67
2023-02-17T02:59:04.113Z,7.72
2023-02-17T03:02:14.601Z,7.56
2023-02-17T03:05:26.154Z,7.46
2023-02-17T03:08:34.663Z,7.48
2023-02-17T03:11:36.652Z,7.68
2023-02-17T03:14:38.936Z,7.68
2023-02-17T03:17:40.777Z,7.84
2023-02-17T03:20:48.284Z,7.90
2023-02-17T03:23:50.034Z,7.87
2023-02-17T03:26:51.844Z,7.78
2023-02-17T03:29:53.666Z,7.77
2023-02-17T03:32:55.507Z,7.61
2023-02-17T03:35:58.673Z,7.69
2023-02-17T03:39:00.459Z,7.69
2023-02-17T03:42:02.703Z,7.72
2023-02-17T03:45:05.341Z,7.69
2023-02-17T03:48:07.152Z,7.72
2023-02-17T03:51:15.104Z,7.79
2023-02-17T03:54:16.896Z,7.80
2023-02-17T03:57:18.735Z,7.76
2023-02-17T04:00:20.869Z,7.71
2023-02-17T04:03:22.698Z,7.71
2023-02-17T04:06:25.978Z,7.68
2023-02-17T04:09:27.847Z,7.59
2023-02-17T04:12:29.596Z,7.52
2023-02-17T04:15:31.410Z,7.67
2023-02-17T04:18:33.227Z,7.62
2023-02-17T04:21:36.415Z,7.73
2023-02-17T04:24:38.813Z,7.75
2023-02-17T04:27:40.645Z,7.86
2023-02-17T04:30:43.573Z,7.83
2023-02-17T04:33:45.486Z,7.84
2023-02-17T04:36:48.634Z,7.77
2023-02-17T04:39:50.422Z,7.85
2023-02-17T04:42:52.411Z,7.75
2023-02-17T04:45:54.663Z,7.61
2023-02-17T04:48:56.575Z,7.57
2023-02-17T04:51:59.802Z,7.71
2023-02-17T04:55:01.686Z,7.67
2023-02-17T04:58:03.564Z,7.73
2023-02-17T05:01:05.562Z,7.57
2023-02-17T05:04:07.387Z,7.64
2023-02-17T05:07:10.608Z,7.56
2023-02-17T05:10:13.525Z,7.52
2023-02-17T05:13:15.259Z,7.48
2023-02-17T05:16:17.126Z,7.49
2023-02-17T05:19:18.950Z,7.57
2023-02-17T05:22:22.223Z,7.55
2023-02-17T05:25:24.044Z,7.54
2023-02-17T05:28:25.897Z,7.56
2023-02-17T05:31:27.780Z,7.58
2023-02-17T05:34:29.689Z,7.56
2023-02-17T05:37:32.902Z,7.68
2023-02-17T05:40:34.741Z,7.67
2023-02-17T05:43:36.615Z,7.69
2023-02-17T05:46:38.471Z,7.78
2023-02-17T05:49:40.230Z,7.71
2023-02-17T05:52:43.510Z,7.73
2023-02-17T05:55:46.997Z,7.69
2023-02-17T05:58:49.734Z,7.69
2023-02-17T06:01:51.487Z,7.53
2023-02-17T06:04:53.351Z,7.59
2023-02-17T06:07:56.697Z,7.74
2023-02-17T06:10:58.503Z,7.85
2023-02-17T06:14:00.341Z,7.91
2023-02-17T06:17:02.221Z,7.83
2023-02-17T06:20:04.335Z,7.75
2023-02-17T06:23:07.585Z,7.92
2023-02-17T06:26:09.603Z,7.92
2023-02-17T06:29:11.447Z,7.85
2023-02-17T06:32:13.318Z,7.87
2023-02-17T06:35:15.683Z,7.77
2023-02-17T06:38:19.452Z,7.74
2023-02-17T06:41:21.363Z,7.73
2023-02-17T06:44:23.241Z,7.57
2023-02-17T06:47:25.026Z,7.69
2023-02-17T06:50:26.905Z,7.53
2023-02-17T06:53:30.084Z,7.44
2023-02-17T06:56:31.977Z,7.42
2023-02-17T06:59:33.811Z,7.39
2023-02-17T07:02:37.758Z,7.35
2023-02-17T07:05:39.648Z,7.32
2023-02-17T07:08:42.930Z,7.36
2023-02-17T07:11:44.823Z,7.35
2023-02-17T07:14:46.690Z,7.35
2023-02-17T07:17:48.556Z,7.35
2023-02-17T07:20:50.445Z,7.45
2023-02-17T07:23:53.672Z,7.63
2023-02-17T07:26:55.524Z,7.55
2023-02-17T07:29:57.471Z,7.56
2023-02-17T07:32:59.331Z,7.79
2023-02-17T07:36:01.324Z,7.72
2023-02-17T07:39:04.754Z,7.93
2023-02-17T07:42:06.734Z,7.95
2023-02-17T07:45:09.007Z,7.95
2023-02-17T07:48:10.860Z,8.22
2023-02-17T07:51:17.616Z,8.10
2023-02-17T07:54:20.860Z,8.05
2023-02-17T07:57:22.733Z,8.25
2023-02-17T08:00:24.697Z,8.26
2023-02-17T08:03:26.622Z,8.25
2023-02-17T08:06:28.609Z,8.29
2023-02-17T08:09:31.866Z,8.24
2023-02-17T08:12:33.669Z,8.35
2023-02-17T08:15:35.645Z,8.31
2023-02-17T08:18:37.452Z,8.33
2023-02-17T08:21:39.338Z,8.38
2023-02-17T08:24:42.492Z,8.47
2023-02-17T08:27:44.312Z,8.37
2023-02-17T08:30:46.281Z,8.26
2023-02-17T08:33:51.165Z,8.32
2023-02-17T08:36:52.963Z,8.26
2023-02-17T08:39:56.108Z,8.45
2023-02-17T08:42:57.943Z,8.48
2023-02-17T08:45:59.822Z,8.49
2023-02-17T08:49:01.638Z,8.61
2023-02-17T08:52:04.269Z,8.50
2023-02-17T08:55:07.871Z,8.45
2023-02-17T08:58:09.808Z,8.52
2023-02-17T09:01:12.120Z,8.60
2023-02-17T09:04:15.193Z,8.57
2023-02-17T09:07:17.201Z,8.65
2023-02-17T09:10:20.404Z,8.73
2023-02-17T09:13:22.480Z,8.72
2023-02-17T09:16:24.538Z,8.68
2023-02-17T09:19:26.916Z,8.65
2023-02-17T09:22:32.375Z,8.57
2023-02-17T09:25:35.810Z,8.62
2023-02-17T09:28:38.514Z,8.53
2023-02-17T09:31:40.785Z,8.71
2023-02-17T09:34:42.733Z,8.65
2023-02-17T09:37:45.663Z,8.68
2023-02-17T09:40:50.072Z,8.66
2023-02-17T09:43:52.693Z,8.66
2023-02-17T09:47:02.805Z,8.63
2023-02-17T09:50:08.703Z,8.65
2023-02-17T09:53:18.098Z,8.61
2023-02-17T09:56:27.120Z,8.64
2023-02-17T09:59:35.981Z,8.65
2023-02-17T10:02:44.990Z,8.60
2023-02-17T10:05:53.304Z,8.61
2023-02-17T10:09:01.251Z,8.60
2023-02-17T10:12:08.846Z,8.57
2023-02-17T10:15:15.153Z,8.64
2023-02-17T10:18:25.049Z,8.57
2023-02-17T10:21:31.103Z,8.41
2023-02-17T10:24:32.938Z,8.36
2023-02-17T10:27:42.477Z,8.44
2023-02-17T10:30:52.969Z,8.47
2023-02-17T10:34:01.329Z,8.38
2023-02-17T10:37:04.563Z,8.47
2023-02-17T10:40:21.615Z,8.31
2023-02-17T10:43:28.069Z,8.34
2023-02-17T10:46:31.703Z,8.40
2023-02-17T10:49:39.525Z,8.38
2023-02-17T10:52:41.941Z,8.56
2023-02-17T10:55:53.563Z,8.50
2023-02-17T10:59:01.207Z,8.70
2023-02-17T11:02:17.103Z,8.83
2023-02-17T11:05:24.831Z,8.87
2023-02-17T11:08:35.354Z,8.94
2023-02-17T11:11:37.146Z,9.01
2023-02-17T11:14:46.068Z,9.06
2023-02-17T11:17:48.759Z,9.07
2023-02-17T11:20:50.608Z,9.09
2023-02-17T11:23:58.097Z,9.12
2023-02-17T11:27:03.264Z,9.11
2023-02-17T11:30:09.132Z,9.11
2023-02-17T11:33:12.570Z,9.10
2023-02-17T11:36:23.993Z,9.07
2023-02-17T11:39:25.773Z,9.01
2023-02-17T11:42:29.979Z,9.03
2023-02-17T11:45:41.430Z,9.11
2023-02-17T11:49:07.266Z,9.22
2023-02-17T11:52:28.709Z,9.26
2023-02-17T11:55:41.610Z,9.23
2023-02-17T11:59:03.056Z,9.25
2023-02-17T12:02:16.960Z,9.26
2023-02-17T12:05:25.150Z,9.27
2023-02-17T12:08:38.386Z,9.32
2023-02-17T12:11:49.564Z,9.39
2023-02-17T12:15:03.066Z,9.45
2023-02-17T12:18:16.254Z,9.52
2023-02-17T12:21:31.934Z,9.61
2023-02-17T12:24:43.335Z,9.71
2023-02-17T12:27:55.707Z,9.73
2023-02-17T12:31:03.454Z,9.84
2023-02-17T12:34:17.758Z,9.85
2023-02-17T12:37:23.132Z,9.79
2023-02-17T12:40:36.449Z,9.76
2023-02-17T12:43:42.424Z,9.76
2023-02-17T12:46:46.455Z,9.77
2023-02-17T12:49:55.714Z,9.92
2023-02-17T12:52:59.127Z,9.94
2023-02-17T12:56:04.515Z,10.01
2023-02-17T12:59:14.146Z,10.09
2023-02-17T13:02:17.891Z,10.12
2023-02-17T13:05:27.848Z,10.10
2023-02-17T13:08:36.225Z,10.21
2023-02-17T13:11:38.050Z,10.20
2023-02-17T13:14:42.915Z,10.22
2023-02-17T13:17:55.211Z,10.38
2023-02-17T13:21:00.426Z,10.37
2023-02-17T13:24:04.464Z,10.37
2023-02-17T13:27:11.721Z,10.45
2023-02-17T13:30:29.532Z,10.64
2023-02-17T13:33:31.791Z,10.69
2023-02-17T13:36:38.394Z,10.83
2023-02-17T13:39:40.226Z,10.90
2023-02-17T13:42:44.388Z,10.93
2023-02-17T13:45:49.872Z,10.97
2023-02-17T13:49:03.205Z,11.16
2023-02-17T13:52:15.934Z,11.12
2023-02-17T13:55:19.806Z,11.24
2023-02-17T13:58:23.107Z,11.30
2023-02-17T14:01:27.508Z,11.17
2023-02-17T14:04:31.517Z,11.19
2023-02-17T14:07:37.331Z,11.11
2023-02-17T14:10:39.759Z,11.01
2023-02-17T14:13:44.680Z,11.05
2023-02-17T14:16:57.527Z,11.01
2023-02-17T14:19:59.858Z,10.87
2023-02-17T14:23:06.173Z,10.86
2023-02-17T14:26:13.879Z,10.83
2023-02-17T14:29:16.210Z,10.74
2023-02-17T14:32:29.596Z,10.79
2023-02-17T14:35:33.838Z,10.72
2023-02-17T14:38:41.051Z,10.73
2023-02-17T14:41:44.867Z,10.63
2023-02-17T14:44:46.926Z,10.72
2023-02-17T14:47:49.808Z,10.77
2023-02-17T14:50:51.968Z,10.70
2023-02-17T14:53:55.343Z,10.65
2023-02-17T14:57:03.588Z,10.66
2023-02-17T15:00:12.136Z,10.69
2023-02-17T15:03:14.378Z,10.85
2023-02-17T15:06:18.447Z,10.88
2023-02-17T15:09:28.709Z,10.89
2023-02-17T15:12:30.547Z,11.00
2023-02-17T15:15:32.944Z,11.04
2023-02-17T15:18:35.444Z,11.02
2023-02-17T15:21:40.334Z,11.03
2023-02-17T15:24:44.030Z,11.05
2023-02-17T15:27:46.938Z,11.06
2023-02-17T15:30:51.511Z,10.91
2023-02-17T15:33:57.098Z,10.73
2023-02-17T15:37:02.034Z,10.71
2023-02-17T15:40:06.419Z,10.58
2023-02-17T15:43:13.696Z,10.49
2023-02-17T15:46:18.491Z,10.46
2023-02-17T15:49:22.799Z,10.27
2023-02-17T15:52:24.799Z,10.20
2023-02-17T15:55:28.155Z,10.22
2023-02-17T15:58:30.574Z,10.14
2023-02-17T16:01:34.228Z,10.01
2023-02-17T16:04:36.600Z,9.74
2023-02-17T16:07:38.867Z,9.71
2023-02-17T16:10:42.776Z,9.64
2023-02-17T16:13:46.605Z,9.60
2023-02-17T16:16:48.654Z,9.48
2023-02-17T16:19:50.935Z,9.59
2023-02-17T16:22:53.157Z,9.53
2023-02-17T16:25:56.560Z,9.47
2023-02-17T16:29:00.452Z,9.49
2023-02-17T16:32:02.942Z,9.43
2023-02-17T16:35:06.287Z,9.40
2023-02-17T16:38:15.252Z,9.30
2023-02-17T16:41:20.983Z,9.33
2023-02-17T16:44:23.727Z,9.33
2023-02-17T16:47:25.903Z,9.41
2023-02-17T16:50:31.785Z,9.39
2023-02-17T16:53:34.102Z,9.33
2023-02-17T16:56:41.513Z,9.39
2023-02-17T16:59:43.832Z,9.38
2023-02-17T17:02:47.086Z,9.48
2023-02-17T17:05:51.157Z,9.38
2023-02-17T17:08:54.183Z,9.42
2023-02-17T17:11:58.582Z,9.45
2023-02-17T17:15:01.549Z,9.52
2023-02-17T17:18:06.907Z,9.47
2023-02-17T17:21:11.726Z,9.50
2023-02-17T17:24:14.397Z,9.56
2023-02-17T17:27:18.268Z,9.59
2023-02-17T17:30:23.403Z,9.60
2023-02-17T17:33:25.551Z,9.54
2023-02-17T17:36:32.795Z,9.65
2023-02-17T17:39:35.312Z,9.66
2023-02-17T17:42:39.302Z,9.69
2023-02-17T17:45:42.620Z,9.72
2023-02-17T17:48:45.283Z,9.85
2023-02-17T17:51:48.565Z,9.90
2023-02-17T17:54:51.313Z,9.97
2023-02-17T17:57:58.772Z,9.92
2023-02-17T18:01:02.086Z,9.95
2023-02-17T18:04:06.127Z,9.99
2023-02-17T18:07:09.114Z,10.03
2023-02-17T18:10:15.185Z,9.96
2023-02-17T18:13:19.988Z,9.84
2023-02-17T18:16:27.081Z,9.90
2023-02-17T18:19:30.075Z,9.84
2023-02-17T18:22:32.370Z,9.89
2023-02-17T18:25:34.939Z,10.01
2023-02-17T18:28:39.450Z,9.93
2023-02-17T18:31:42.647Z,9.94
2023-02-17T18:34:45.899Z,10.04
2023-02-17T18:37:49.171Z,10.03
2023-02-17T18:40:52.187Z,10.05
2023-02-17T18:43:58.212Z,10.12
2023-02-17T18:47:02.538Z,10.20
2023-02-17T18:50:05.879Z,10.13
2023-02-17T18:53:09.044Z,10.17
2023-02-17T18:56:13.817Z,10.14
2023-02-17T18:59:20.380Z,10.13
2023-02-17T19:02:24.129Z,10.17
2023-02-17T19:05:29.155Z,10.18
2023-02-17T19:08:32.200Z,10.20
2023-02-17T19:11:34.681Z,10.19
2023-02-17T19:14:39.839Z,10.21
2023-02-17T19:17:43.425Z,10.21
2023-02-17T19:20:47.988Z,10.14
2023-02-17T19:23:51.773Z,10.17
2023-02-17T19:26:54.568Z,10.26
2023-02-17T19:29:59.354Z,10.14
2023-02-17T19:33:02.563Z,10.27
2023-02-17T19:36:09.686Z,10.24
2023-02-17T19:39:12.959Z,10.23
2023-02-17T19:42:15.889Z,10.19
2023-02-17T19:45:20.124Z,10.11
2023-02-17T19:48:22.607Z,10.08
2023-02-17T19:51:26.283Z,10.09
2023-02-17T19:54:29.342Z,10.20
2023-02-17T19:57:31.765Z,10.22
2023-02-17T20:00:36.147Z,10.27
2023-02-17T20:03:39.353Z,10.23
2023-02-17T20:06:43.780Z,10.28
2023-02-17T20:09:55.203Z,10.36
2023-02-17T20:12:58.404Z,10.42
2023-02-17T20:16:05.167Z,10.54
2023-02-17T20:19:08.528Z,10.51
2023-02-17T20:22:12.298Z,10.41
2023-02-17T20:25:15.170Z,10.45
2023-02-17T20:28:18.493Z,10.46
2023-02-17T20:31:22.453Z,10.50
2023-02-17T20:34:29.461Z,10.56
2023-02-17T20:37:35.229Z,10.63
2023-02-17T20:40:39.359Z,10.57
2023-02-17T20:43:43.221Z,10.63
2023-02-17T20:46:48.178Z,10.60
2023-02-17T20:49:51.379Z,10.72
2023-02-17T20:52:57.670Z,10.75
2023-02-17T20:56:00.628Z,10.77
2023-02-17T20:59:04.203Z,10.83
2023-02-17T21:02:10.346Z,10.76
2023-02-17T21:05:13.171Z,10.86
2023-02-17T21:08:17.471Z,10.89
2023-02-17T21:11:20.112Z,10.80
2023-02-17T21:14:22.742Z,10.78
2023-02-17T21:17:28.176Z,10.87
2023-02-17T21:20:31.230Z,10.81
2023-02-17T21:23:33.945Z,10.80
2023-02-17T21:26:36.278Z,10.85
2023-02-17T21:29:38.268Z,10.83
2023-02-17T21:32:42.143Z,10.87
2023-02-17T21:35:44.149Z,10.85
2023-02-17T21:38:46.882Z,10.85
2023-02-17T21:41:48.712Z,10.78
2023-02-17T21:44:51.371Z,10.87
2023-02-17T21:47:54.917Z,10.83
2023-02-17T21:51:04.651Z,10.85
2023-02-17T21:54:07.375Z,10.94
2023-02-17T21:57:09.236Z,10.89
2023-02-17T22:00:12.899Z,10.89
2023-02-17T22:03:16.218Z,10.85
2023-02-17T22:06:20.959Z,10.94
2023-02-17T22:09:22.885Z,10.91
2023-02-17T22:12:24.801Z,11.01
2023-02-17T22:15:26.689Z,10.95
2023-02-17T22:18:29.849Z,10.94
2023-02-17T22:21:32.229Z,11.05
2023-02-17T22:24:34.045Z,11.08
2023-02-17T22:27:35.837Z,10.99
2023-02-17T22:30:37.613Z,11.07
2023-02-17T22:33:40.798Z,11.03
2023-02-17T22:36:42.620Z,10.99
2023-02-17T22:39:44.414Z,10.88
2023-02-17T22:42:46.252Z,10.96
2023-02-17T22:45:48.148Z,10.96
2023-02-17T22:48:52.319Z,11.04
2023-02-17T22:51:54.096Z,10.91
2023-02-17T22:54:56.014Z,10.94
2023-02-17T22:57:57.812Z,10.93
2023-02-17T23:01:04.494Z,10.91
2023-02-17T23:04:07.769Z,10.86
2023-02-17T23:07:09.598Z,10.90
2023-02-17T23:10:11.760Z,10.86
2023-02-17T23:13:13.491Z,10.79
2023-02-17T23:16:19.307Z,10.79
2023-02-17T23:19:23.523Z,10.84
2023-02-17T23:22:25.330Z,10.89
2023-02-17T23:25:27.131Z,10.80
2023-02-17T23:28:28.983Z,10.73
2023-02-17T23:31:30.868Z,10.78
2023-02-17T23:34:34.496Z,10.76
2023-02-17T23:37:36.326Z,10.73
2023-02-17T23:40:39.215Z,10.69
2023-02-17T23:43:41.095Z,10.74
2023-02-17T23:46:44.195Z,10.77
2023-02-17T23:49:47.451Z,10.77
2023-02-17T23:52:49.228Z,10.70
2023-02-17T23:56:00.939Z,10.80
2023-02-17T23:59:03.174Z,10.72
